sensor_id;sensor_type;location;lat;lon;timestamp;temperature;humidity
20091;DHT22;10205;49.678;6.560;2023-02-07T00:01:32;6.60;65.90
20091;DHT22;10205;49.678;6.560;2023-02-07T00:04:03;6.60;66.00
20091;DHT22;10205;49.678;6.560;2023-02-07T00:06:32;6.50;66.00
20091;DHT22;10205;49.678;6.560;2023-02-07T00:09:03;6.50;65.90
20091;DHT22;10205;49.678;6.560;2023-02-07T00:11:32;6.50;65.90
20091;DHT22;10205;49.678;6.560;2023-02-07T00:14:08;6.50;65.80
20091;DHT22;10205;49.678;6.560;2023-02-07T00:16:36;6.50;65.90
20091;DHT22;10205;49.678;6.560;2023-02-07T00:19:07;6.50;65.90
20091;DHT22;10205;49.678;6.560;2023-02-07T00:21:35;6.40;66.00
20091;DHT22;10205;49.678;6.560;2023-02-07T00:24:02;6.40;66.10
20091;DHT22;10205;49.678;6.560;2023-02-07T00:26:30;6.40;66.30
20091;DHT22;10205;49.678;6.560;2023-02-07T00:28:57;6.30;66.30
20091;DHT22;10205;49.678;6.560;2023-02-07T00:31:30;6.40;66.40
20091;DHT22;10205;49.678;6.560;2023-02-07T00:34:00;6.40;66.40
20091;DHT22;10205;49.678;6.560;2023-02-07T00:36:29;6.30;66.30
20091;DHT22;10205;49.678;6.560;2023-02-07T00:39:01;6.30;66.30
20091;DHT22;10205;49.678;6.560;2023-02-07T00:41:31;6.30;65.80
20091;DHT22;10205;49.678;6.560;2023-02-07T00:43:59;6.30;65.80
20091;DHT22;10205;49.678;6.560;2023-02-07T00:46:27;6.30;65.80
20091;DHT22;10205;49.678;6.560;2023-02-07T00:48:55;6.20;65.10
20091;DHT22;10205;49.678;6.560;2023-02-07T00:51:22;6.30;64.80
20091;DHT22;10205;49.678;6.560;2023-02-07T00:53:51;6.20;65.00
20091;DHT22;10205;49.678;6.560;2023-02-07T00:56:20;6.20;64.60
20091;DHT22;10205;49.678;6.560;2023-02-07T00:58:49;6.20;64.60
20091;DHT22;10205;49.678;6.560;2023-02-07T01:01:17;6.10;64.70
20091;DHT22;10205;49.678;6.560;2023-02-07T01:03:46;6.10;64.10
20091;DHT22;10205;49.678;6.560;2023-02-07T01:06:13;6.10;64.10
20091;DHT22;10205;49.678;6.560;2023-02-07T01:08:40;6.10;64.50
20091;DHT22;10205;49.678;6.560;2023-02-07T01:11:13;6.00;64.10
20091;DHT22;10205;49.678;6.560;2023-02-07T01:13:43;6.00;64.60
20091;DHT22;10205;49.678;6.560;2023-02-07T01:16:17;6.00;64.20
20091;DHT22;10205;49.678;6.560;2023-02-07T01:18:47;5.90;64.60
20091;DHT22;10205;49.678;6.560;2023-02-07T01:21:15;5.90;65.10
20091;DHT22;10205;49.678;6.560;2023-02-07T01:23:44;5.90;65.30
20091;DHT22;10205;49.678;6.560;2023-02-07T01:26:12;5.90;65.00
20091;DHT22;10205;49.678;6.560;2023-02-07T01:28:40;5.90;65.10
20091;DHT22;10205;49.678;6.560;2023-02-07T01:31:08;5.90;65.40
20091;DHT22;10205;49.678;6.560;2023-02-07T01:33:37;5.90;65.40
20091;DHT22;10205;49.678;6.560;2023-02-07T01:36:07;5.80;65.30
20091;DHT22;10205;49.678;6.560;2023-02-07T01:38:36;5.80;65.40
20091;DHT22;10205;49.678;6.560;2023-02-07T01:41:04;5.80;65.50
20091;DHT22;10205;49.678;6.560;2023-02-07T01:43:31;5.80;65.50
20091;DHT22;10205;49.678;6.560;2023-02-07T01:45:58;5.80;65.50
20091;DHT22;10205;49.678;6.560;2023-02-07T01:48:30;5.70;65.50
20091;DHT22;10205;49.678;6.560;2023-02-07T01:51:06;5.70;65.50
20091;DHT22;10205;49.678;6.560;2023-02-07T01:53:36;5.70;65.70
20091;DHT22;10205;49.678;6.560;2023-02-07T01:56:06;5.60;65.60
20091;DHT22;10205;49.678;6.560;2023-02-07T01:58:37;5.60;65.70
20091;DHT22;10205;49.678;6.560;2023-02-07T02:01:08;5.50;66.00
20091;DHT22;10205;49.678;6.560;2023-02-07T02:03:42;5.50;66.30
20091;DHT22;10205;49.678;6.560;2023-02-07T02:06:17;5.50;66.50
20091;DHT22;10205;49.678;6.560;2023-02-07T02:08:46;5.50;66.30
20091;DHT22;10205;49.678;6.560;2023-02-07T02:11:48;5.50;66.10
20091;DHT22;10205;49.678;6.560;2023-02-07T02:14:44;5.50;65.90
20091;DHT22;10205;49.678;6.560;2023-02-07T02:17:34;5.40;65.30
20091;DHT22;10205;49.678;6.560;2023-02-07T02:20:53;5.40;65.90
20091;DHT22;10205;49.678;6.560;2023-02-07T02:23:50;5.30;66.10
20091;DHT22;10205;49.678;6.560;2023-02-07T02:26:46;5.30;66.00
20091;DHT22;10205;49.678;6.560;2023-02-07T02:29:37;5.30;65.80
20091;DHT22;10205;49.678;6.560;2023-02-07T02:35:36;5.30;66.30
20091;DHT22;10205;49.678;6.560;2023-02-07T02:38:15;5.30;66.30
20091;DHT22;10205;49.678;6.560;2023-02-07T02:40:50;5.20;66.30
20091;DHT22;10205;49.678;6.560;2023-02-07T02:43:27;5.20;66.20
20091;DHT22;10205;49.678;6.560;2023-02-07T02:46:02;5.20;66.10
20091;DHT22;10205;49.678;6.560;2023-02-07T02:48:33;5.20;65.90
20091;DHT22;10205;49.678;6.560;2023-02-07T02:51:03;5.20;66.20
20091;DHT22;10205;49.678;6.560;2023-02-07T02:53:31;5.20;66.40
20091;DHT22;10205;49.678;6.560;2023-02-07T02:56:18;5.20;66.30
20091;DHT22;10205;49.678;6.560;2023-02-07T02:59:23;5.20;66.10
20091;DHT22;10205;49.678;6.560;2023-02-07T03:02:20;5.20;65.90
20091;DHT22;10205;49.678;6.560;2023-02-07T03:05:08;5.20;65.80
20091;DHT22;10205;49.678;6.560;2023-02-07T03:07:54;5.10;65.80
20091;DHT22;10205;49.678;6.560;2023-02-07T03:10:34;5.10;66.00
20091;DHT22;10205;49.678;6.560;2023-02-07T03:13:13;5.10;65.90
20091;DHT22;10205;49.678;6.560;2023-02-07T03:15:58;5.10;65.70
20091;DHT22;10205;49.678;6.560;2023-02-07T03:18:45;5.10;65.70
20091;DHT22;10205;49.678;6.560;2023-02-07T03:21:22;5.10;65.80
20091;DHT22;10205;49.678;6.560;2023-02-07T03:23:59;5.10;66.70
20091;DHT22;10205;49.678;6.560;2023-02-07T03:26:29;5.00;65.70
20091;DHT22;10205;49.678;6.560;2023-02-07T03:28:59;5.00;65.60
20091;DHT22;10205;49.678;6.560;2023-02-07T03:31:33;5.00;65.50
20091;DHT22;10205;49.678;6.560;2023-02-07T03:34:08;4.90;65.30
20091;DHT22;10205;49.678;6.560;2023-02-07T03:36:41;4.90;65.40
20091;DHT22;10205;49.678;6.560;2023-02-07T03:39:16;4.90;65.70
20091;DHT22;10205;49.678;6.560;2023-02-07T03:41:48;4.90;66.00
20091;DHT22;10205;49.678;6.560;2023-02-07T03:44:20;4.90;66.20
20091;DHT22;10205;49.678;6.560;2023-02-07T03:46:51;4.90;65.90
20091;DHT22;10205;49.678;6.560;2023-02-07T03:49:18;4.80;65.90
20091;DHT22;10205;49.678;6.560;2023-02-07T03:51:45;4.80;66.00
20091;DHT22;10205;49.678;6.560;2023-02-07T03:54:13;4.80;66.10
20091;DHT22;10205;49.678;6.560;2023-02-07T03:56:42;4.80;66.30
20091;DHT22;10205;49.678;6.560;2023-02-07T03:59:09;4.80;66.50
20091;DHT22;10205;49.678;6.560;2023-02-07T04:01:37;4.80;66.50
20091;DHT22;10205;49.678;6.560;2023-02-07T04:04:06;4.80;66.70
20091;DHT22;10205;49.678;6.560;2023-02-07T04:06:34;4.70;66.50
20091;DHT22;10205;49.678;6.560;2023-02-07T04:09:01;4.70;66.40
20091;DHT22;10205;49.678;6.560;2023-02-07T04:11:29;4.70;66.30
20091;DHT22;10205;49.678;6.560;2023-02-07T04:13:57;4.70;66.30
20091;DHT22;10205;49.678;6.560;2023-02-07T04:16:24;4.60;66.30
20091;DHT22;10205;49.678;6.560;2023-02-07T04:18:52;4.60;66.20
20091;DHT22;10205;49.678;6.560;2023-02-07T04:21:19;4.60;66.30
20091;DHT22;10205;49.678;6.560;2023-02-07T04:23:46;4.60;66.40
20091;DHT22;10205;49.678;6.560;2023-02-07T04:26:13;4.60;66.50
20091;DHT22;10205;49.678;6.560;2023-02-07T04:28:40;4.50;66.50
20091;DHT22;10205;49.678;6.560;2023-02-07T04:31:09;4.50;66.50
20091;DHT22;10205;49.678;6.560;2023-02-07T04:33:37;4.50;66.50
20091;DHT22;10205;49.678;6.560;2023-02-07T04:36:04;4.50;66.60
20091;DHT22;10205;49.678;6.560;2023-02-07T04:38:33;4.50;66.70
20091;DHT22;10205;49.678;6.560;2023-02-07T04:41:02;4.40;66.50
20091;DHT22;10205;49.678;6.560;2023-02-07T04:43:31;4.40;66.50
20091;DHT22;10205;49.678;6.560;2023-02-07T04:46:15;4.40;66.60
20091;DHT22;10205;49.678;6.560;2023-02-07T04:48:43;4.40;66.60
20091;DHT22;10205;49.678;6.560;2023-02-07T04:51:10;4.40;66.70
20091;DHT22;10205;49.678;6.560;2023-02-07T04:53:38;4.40;66.70
20091;DHT22;10205;49.678;6.560;2023-02-07T04:56:05;4.30;66.70
20091;DHT22;10205;49.678;6.560;2023-02-07T04:58:33;4.40;66.70
20091;DHT22;10205;49.678;6.560;2023-02-07T05:01:00;4.30;66.80
20091;DHT22;10205;49.678;6.560;2023-02-07T05:03:29;4.30;66.90
20091;DHT22;10205;49.678;6.560;2023-02-07T05:05:59;4.30;67.00
20091;DHT22;10205;49.678;6.560;2023-02-07T05:08:26;4.30;67.00
20091;DHT22;10205;49.678;6.560;2023-02-07T05:10:53;4.30;67.00
20091;DHT22;10205;49.678;6.560;2023-02-07T05:13:24;4.30;66.90
20091;DHT22;10205;49.678;6.560;2023-02-07T05:15:51;4.30;66.90
20091;DHT22;10205;49.678;6.560;2023-02-07T05:18:18;4.30;66.90
20091;DHT22;10205;49.678;6.560;2023-02-07T05:20:47;4.30;66.90
20091;DHT22;10205;49.678;6.560;2023-02-07T05:23:15;4.30;67.00
20091;DHT22;10205;49.678;6.560;2023-02-07T05:25:42;4.30;66.90
20091;DHT22;10205;49.678;6.560;2023-02-07T05:28:10;4.30;66.80
20091;DHT22;10205;49.678;6.560;2023-02-07T05:30:37;4.30;66.80
20091;DHT22;10205;49.678;6.560;2023-02-07T05:33:04;4.20;66.60
20091;DHT22;10205;49.678;6.560;2023-02-07T05:35:35;4.20;66.60
20091;DHT22;10205;49.678;6.560;2023-02-07T05:38:08;4.20;66.60
20091;DHT22;10205;49.678;6.560;2023-02-07T05:40:38;4.20;66.60
20091;DHT22;10205;49.678;6.560;2023-02-07T05:43:08;4.20;66.60
20091;DHT22;10205;49.678;6.560;2023-02-07T05:45:35;4.20;66.90
20091;DHT22;10205;49.678;6.560;2023-02-07T05:48:04;4.20;66.80
20091;DHT22;10205;49.678;6.560;2023-02-07T05:50:34;4.20;66.90
20091;DHT22;10205;49.678;6.560;2023-02-07T05:53:01;4.20;67.10
20091;DHT22;10205;49.678;6.560;2023-02-07T05:55:31;4.20;67.10
20091;DHT22;10205;49.678;6.560;2023-02-07T05:57:58;4.20;67.10
20091;DHT22;10205;49.678;6.560;2023-02-07T06:00:25;4.20;66.90
20091;DHT22;10205;49.678;6.560;2023-02-07T06:02:52;4.20;66.80
20091;DHT22;10205;49.678;6.560;2023-02-07T06:05:19;4.20;66.90
20091;DHT22;10205;49.678;6.560;2023-02-07T06:07:50;4.20;66.90
20091;DHT22;10205;49.678;6.560;2023-02-07T06:10:18;4.20;66.80
20091;DHT22;10205;49.678;6.560;2023-02-07T06:12:47;4.20;66.80
20091;DHT22;10205;49.678;6.560;2023-02-07T06:15:16;4.20;66.80
20091;DHT22;10205;49.678;6.560;2023-02-07T06:17:43;4.20;66.90
20091;DHT22;10205;49.678;6.560;2023-02-07T06:20:11;4.20;66.70
20091;DHT22;10205;49.678;6.560;2023-02-07T06:22:38;4.20;66.90
20091;DHT22;10205;49.678;6.560;2023-02-07T06:25:06;4.20;66.90
20091;DHT22;10205;49.678;6.560;2023-02-07T06:27:39;4.20;66.80
20091;DHT22;10205;49.678;6.560;2023-02-07T06:30:10;4.20;66.60
20091;DHT22;10205;49.678;6.560;2023-02-07T06:32:40;4.20;66.80
20091;DHT22;10205;49.678;6.560;2023-02-07T06:35:08;4.20;66.70
20091;DHT22;10205;49.678;6.560;2023-02-07T06:37:35;4.10;66.80
20091;DHT22;10205;49.678;6.560;2023-02-07T06:40:02;4.10;67.00
20091;DHT22;10205;49.678;6.560;2023-02-07T06:42:30;4.10;67.20
20091;DHT22;10205;49.678;6.560;2023-02-07T06:44:58;4.10;67.30
20091;DHT22;10205;49.678;6.560;2023-02-07T06:47:26;4.10;67.40
20091;DHT22;10205;49.678;6.560;2023-02-07T06:49:53;4.10;67.40
20091;DHT22;10205;49.678;6.560;2023-02-07T06:52:20;4.10;67.10
20091;DHT22;10205;49.678;6.560;2023-02-07T06:54:47;4.10;67.10
20091;DHT22;10205;49.678;6.560;2023-02-07T06:57:33;4.10;67.20
20091;DHT22;10205;49.678;6.560;2023-02-07T07:00:00;4.10;67.30
20091;DHT22;10205;49.678;6.560;2023-02-07T07:02:30;4.10;67.00
20091;DHT22;10205;49.678;6.560;2023-02-07T07:04:58;4.10;66.80
20091;DHT22;10205;49.678;6.560;2023-02-07T07:07:25;4.10;66.70
20091;DHT22;10205;49.678;6.560;2023-02-07T07:09:52;4.10;66.70
20091;DHT22;10205;49.678;6.560;2023-02-07T07:12:19;4.10;66.60
20091;DHT22;10205;49.678;6.560;2023-02-07T07:14:49;4.00;66.50
20091;DHT22;10205;49.678;6.560;2023-02-07T07:17:17;4.00;66.30
20091;DHT22;10205;49.678;6.560;2023-02-07T07:19:45;4.00;66.40
20091;DHT22;10205;49.678;6.560;2023-02-07T07:22:13;4.00;66.30
20091;DHT22;10205;49.678;6.560;2023-02-07T07:24:40;3.90;66.30
20091;DHT22;10205;49.678;6.560;2023-02-07T07:27:07;3.90;66.50
20091;DHT22;10205;49.678;6.560;2023-02-07T07:29:34;3.90;66.80
20091;DHT22;10205;49.678;6.560;2023-02-07T07:32:02;3.90;66.90
20091;DHT22;10205;49.678;6.560;2023-02-07T07:34:29;3.90;66.90
20091;DHT22;10205;49.678;6.560;2023-02-07T07:36:57;3.80;66.80
20091;DHT22;10205;49.678;6.560;2023-02-07T07:39:25;3.80;66.80
20091;DHT22;10205;49.678;6.560;2023-02-07T07:41:52;3.80;66.70
20091;DHT22;10205;49.678;6.560;2023-02-07T07:44:19;3.80;66.80
20091;DHT22;10205;49.678;6.560;2023-02-07T07:46:47;3.80;66.50
20091;DHT22;10205;49.678;6.560;2023-02-07T07:49:15;3.80;66.10
20091;DHT22;10205;49.678;6.560;2023-02-07T07:51:42;3.80;66.00
20091;DHT22;10205;49.678;6.560;2023-02-07T07:54:10;3.70;66.00
20091;DHT22;10205;49.678;6.560;2023-02-07T07:56:38;3.70;66.10
20091;DHT22;10205;49.678;6.560;2023-02-07T07:59:05;3.70;66.30
20091;DHT22;10205;49.678;6.560;2023-02-07T08:01:32;3.70;66.40
20091;DHT22;10205;49.678;6.560;2023-02-07T08:04:01;3.70;66.40
20091;DHT22;10205;49.678;6.560;2023-02-07T08:06:28;3.70;66.40
20091;DHT22;10205;49.678;6.560;2023-02-07T08:08:56;3.70;66.30
20091;DHT22;10205;49.678;6.560;2023-02-07T08:11:24;3.70;66.40
20091;DHT22;10205;49.678;6.560;2023-02-07T08:13:51;3.60;66.10
20091;DHT22;10205;49.678;6.560;2023-02-07T08:16:19;3.60;66.30
20091;DHT22;10205;49.678;6.560;2023-02-07T08:18:46;3.60;66.20
20091;DHT22;10205;49.678;6.560;2023-02-07T08:21:13;3.60;66.30
20091;DHT22;10205;49.678;6.560;2023-02-07T08:23:40;3.60;66.40
20091;DHT22;10205;49.678;6.560;2023-02-07T08:26:07;3.60;66.40
20091;DHT22;10205;49.678;6.560;2023-02-07T08:28:36;3.60;66.50
20091;DHT22;10205;49.678;6.560;2023-02-07T08:31:04;3.70;66.60
20091;DHT22;10205;49.678;6.560;2023-02-07T08:33:32;3.70;66.50
20091;DHT22;10205;49.678;6.560;2023-02-07T08:35:59;3.70;66.70
20091;DHT22;10205;49.678;6.560;2023-02-07T08:38:30;3.70;66.80
20091;DHT22;10205;49.678;6.560;2023-02-07T08:41:04;3.70;67.60
20091;DHT22;10205;49.678;6.560;2023-02-07T08:43:35;3.80;66.50
20091;DHT22;10205;49.678;6.560;2023-02-07T08:46:05;3.80;66.30
20091;DHT22;10205;49.678;6.560;2023-02-07T08:48:33;3.80;66.30
20091;DHT22;10205;49.678;6.560;2023-02-07T08:51:03;3.80;66.50
20091;DHT22;10205;49.678;6.560;2023-02-07T08:53:35;3.90;66.30
20091;DHT22;10205;49.678;6.560;2023-02-07T08:56:02;3.90;66.40
20091;DHT22;10205;49.678;6.560;2023-02-07T08:58:30;3.90;66.40
20091;DHT22;10205;49.678;6.560;2023-02-07T09:00:58;3.90;65.90
20091;DHT22;10205;49.678;6.560;2023-02-07T09:03:28;4.00;66.20
20091;DHT22;10205;49.678;6.560;2023-02-07T09:05:57;4.00;65.90
20091;DHT22;10205;49.678;6.560;2023-02-07T09:08:24;4.00;65.80
20091;DHT22;10205;49.678;6.560;2023-02-07T09:10:51;4.10;65.70
20091;DHT22;10205;49.678;6.560;2023-02-07T09:13:20;4.10;65.40
20091;DHT22;10205;49.678;6.560;2023-02-07T09:15:52;4.10;65.60
20091;DHT22;10205;49.678;6.560;2023-02-07T09:18:32;4.20;65.80
20091;DHT22;10205;49.678;6.560;2023-02-07T09:20:59;4.20;65.80
20091;DHT22;10205;49.678;6.560;2023-02-07T09:23:26;4.30;65.20
20091;DHT22;10205;49.678;6.560;2023-02-07T09:25:53;4.30;64.90
20091;DHT22;10205;49.678;6.560;2023-02-07T09:28:30;4.30;64.60
20091;DHT22;10205;49.678;6.560;2023-02-07T09:30:58;4.30;64.00
20091;DHT22;10205;49.678;6.560;2023-02-07T09:33:25;4.40;63.40
20091;DHT22;10205;49.678;6.560;2023-02-07T09:35:55;4.40;64.40
20091;DHT22;10205;49.678;6.560;2023-02-07T09:38:23;4.50;64.80
20091;DHT22;10205;49.678;6.560;2023-02-07T09:40:52;4.50;63.90
20091;DHT22;10205;49.678;6.560;2023-02-07T09:43:29;4.60;64.30
20091;DHT22;10205;49.678;6.560;2023-02-07T09:46:05;4.60;63.80
20091;DHT22;10205;49.678;6.560;2023-02-07T09:48:44;4.70;64.00
20091;DHT22;10205;49.678;6.560;2023-02-07T09:51:18;4.70;63.30
20091;DHT22;10205;49.678;6.560;2023-02-07T09:53:50;4.70;62.70
20091;DHT22;10205;49.678;6.560;2023-02-07T09:56:22;4.80;62.30
20091;DHT22;10205;49.678;6.560;2023-02-07T09:58:59;4.90;63.20
20091;DHT22;10205;49.678;6.560;2023-02-07T10:01:35;4.90;63.00
20091;DHT22;10205;49.678;6.560;2023-02-07T10:04:20;4.90;62.50
20091;DHT22;10205;49.678;6.560;2023-02-07T10:06:57;5.00;63.20
20091;DHT22;10205;49.678;6.560;2023-02-07T10:09:27;5.00;62.60
20091;DHT22;10205;49.678;6.560;2023-02-07T10:12:02;5.10;62.30
20091;DHT22;10205;49.678;6.560;2023-02-07T10:14:50;5.10;60.70
20091;DHT22;10205;49.678;6.560;2023-02-07T10:17:48;5.10;59.60
20091;DHT22;10205;49.678;6.560;2023-02-07T10:20:31;5.20;60.80
20091;DHT22;10205;49.678;6.560;2023-02-07T10:23:15;5.20;60.30
20091;DHT22;10205;49.678;6.560;2023-02-07T10:26:02;5.30;60.60
20091;DHT22;10205;49.678;6.560;2023-02-07T10:31:53;5.40;59.80
20091;DHT22;10205;49.678;6.560;2023-02-07T10:34:32;5.50;60.20
20091;DHT22;10205;49.678;6.560;2023-02-07T10:37:14;5.50;59.60
20091;DHT22;10205;49.678;6.560;2023-02-07T10:39:51;5.60;60.00
20091;DHT22;10205;49.678;6.560;2023-02-07T10:42:24;5.70;59.20
20091;DHT22;10205;49.678;6.560;2023-02-07T10:45:03;5.70;59.80
20091;DHT22;10205;49.678;6.560;2023-02-07T10:47:34;5.80;60.50
20091;DHT22;10205;49.678;6.560;2023-02-07T10:50:08;5.90;59.50
20091;DHT22;10205;49.678;6.560;2023-02-07T10:52:41;5.90;60.00
20091;DHT22;10205;49.678;6.560;2023-02-07T10:55:17;6.00;60.00
20091;DHT22;10205;49.678;6.560;2023-02-07T10:57:59;6.00;59.60
20091;DHT22;10205;49.678;6.560;2023-02-07T11:00:28;6.10;58.50
20091;DHT22;10205;49.678;6.560;2023-02-07T11:03:01;6.20;58.50
20091;DHT22;10205;49.678;6.560;2023-02-07T11:05:40;6.20;58.80
20091;DHT22;10205;49.678;6.560;2023-02-07T11:08:23;6.30;59.60
20091;DHT22;10205;49.678;6.560;2023-02-07T11:10:54;6.40;60.10
20091;DHT22;10205;49.678;6.560;2023-02-07T11:13:25;6.40;60.20
20091;DHT22;10205;49.678;6.560;2023-02-07T11:15:57;6.50;58.50
20091;DHT22;10205;49.678;6.560;2023-02-07T11:18:38;6.50;57.90
20091;DHT22;10205;49.678;6.560;2023-02-07T11:21:24;6.60;57.30
20091;DHT22;10205;49.678;6.560;2023-02-07T11:23:59;6.60;57.60
20091;DHT22;10205;49.678;6.560;2023-02-07T11:26:34;6.70;57.90
20091;DHT22;10205;49.678;6.560;2023-02-07T11:29:12;6.70;58.00
20091;DHT22;10205;49.678;6.560;2023-02-07T11:31:42;6.80;57.70
20091;DHT22;10205;49.678;6.560;2023-02-07T11:34:30;6.80;57.40
20091;DHT22;10205;49.678;6.560;2023-02-07T11:37:17;6.80;56.50
20091;DHT22;10205;49.678;6.560;2023-02-07T11:39:50;6.90;56.70
20091;DHT22;10205;49.678;6.560;2023-02-07T11:42:22;6.90;56.80
20091;DHT22;10205;49.678;6.560;2023-02-07T11:44:51;7.00;57.60
20091;DHT22;10205;49.678;6.560;2023-02-07T11:47:21;7.00;57.40
20091;DHT22;10205;49.678;6.560;2023-02-07T11:49:54;7.10;57.10
20091;DHT22;10205;49.678;6.560;2023-02-07T11:52:24;7.10;56.80
20091;DHT22;10205;49.678;6.560;2023-02-07T11:54:56;7.20;56.70
20091;DHT22;10205;49.678;6.560;2023-02-07T11:57:30;7.20;56.70
20091;DHT22;10205;49.678;6.560;2023-02-07T12:00:03;7.20;56.10
20091;DHT22;10205;49.678;6.560;2023-02-07T12:02:33;7.30;55.50
20091;DHT22;10205;49.678;6.560;2023-02-07T12:05:14;7.30;56.10
20091;DHT22;10205;49.678;6.560;2023-02-07T12:07:47;7.30;55.40
20091;DHT22;10205;49.678;6.560;2023-02-07T12:10:20;7.40;54.90
20091;DHT22;10205;49.678;6.560;2023-02-07T12:12:55;7.40;55.10
20091;DHT22;10205;49.678;6.560;2023-02-07T12:15:33;7.40;55.90
20091;DHT22;10205;49.678;6.560;2023-02-07T12:18:06;7.50;55.80
20091;DHT22;10205;49.678;6.560;2023-02-07T12:20:45;7.50;55.30
20091;DHT22;10205;49.678;6.560;2023-02-07T12:23:22;7.50;56.20
20091;DHT22;10205;49.678;6.560;2023-02-07T12:26:02;7.60;56.30
20091;DHT22;10205;49.678;6.560;2023-02-07T12:28:43;7.60;54.70
20091;DHT22;10205;49.678;6.560;2023-02-07T12:31:19;7.60;54.10
20091;DHT22;10205;49.678;6.560;2023-02-07T12:33:55;7.60;54.90
20091;DHT22;10205;49.678;6.560;2023-02-07T12:36:30;7.70;56.00
20091;DHT22;10205;49.678;6.560;2023-02-07T12:39:04;7.70;55.10
20091;DHT22;10205;49.678;6.560;2023-02-07T12:41:40;7.80;54.20
20091;DHT22;10205;49.678;6.560;2023-02-07T12:44:18;7.80;54.70
20091;DHT22;10205;49.678;6.560;2023-02-07T12:46:57;7.80;54.20
20091;DHT22;10205;49.678;6.560;2023-02-07T12:49:50;7.80;54.30
20091;DHT22;10205;49.678;6.560;2023-02-07T12:52:37;7.90;53.80
20091;DHT22;10205;49.678;6.560;2023-02-07T12:55:22;7.90;55.40
20091;DHT22;10205;49.678;6.560;2023-02-07T12:58:07;8.00;54.70
20091;DHT22;10205;49.678;6.560;2023-02-07T13:00:56;8.00;54.30
20091;DHT22;10205;49.678;6.560;2023-02-07T13:03:41;8.00;54.40
20091;DHT22;10205;49.678;6.560;2023-02-07T13:06:27;8.10;55.00
20091;DHT22;10205;49.678;6.560;2023-02-07T13:09:09;8.10;54.70
20091;DHT22;10205;49.678;6.560;2023-02-07T13:11:42;8.20;55.20
20091;DHT22;10205;49.678;6.560;2023-02-07T13:14:25;8.20;53.40
20091;DHT22;10205;49.678;6.560;2023-02-07T13:17:16;8.20;53.30
20091;DHT22;10205;49.678;6.560;2023-02-07T13:20:02;8.20;53.10
20091;DHT22;10205;49.678;6.560;2023-02-07T13:22:37;8.20;52.60
20091;DHT22;10205;49.678;6.560;2023-02-07T13:25:15;8.30;52.70
20091;DHT22;10205;49.678;6.560;2023-02-07T13:27:48;8.30;52.00
20091;DHT22;10205;49.678;6.560;2023-02-07T13:30:20;8.30;51.80
20091;DHT22;10205;49.678;6.560;2023-02-07T13:32:51;8.30;52.90
20091;DHT22;10205;49.678;6.560;2023-02-07T13:35:22;8.30;54.30
20091;DHT22;10205;49.678;6.560;2023-02-07T13:37:57;8.40;54.10
20091;DHT22;10205;49.678;6.560;2023-02-07T13:40:36;8.40;52.90
20091;DHT22;10205;49.678;6.560;2023-02-07T13:43:19;8.50;54.00
20091;DHT22;10205;49.678;6.560;2023-02-07T13:46:06;8.50;51.70
20091;DHT22;10205;49.678;6.560;2023-02-07T13:48:49;8.50;51.40
20091;DHT22;10205;49.678;6.560;2023-02-07T13:51:26;8.50;51.70
20091;DHT22;10205;49.678;6.560;2023-02-07T13:54:09;8.50;51.00
20091;DHT22;10205;49.678;6.560;2023-02-07T13:56:56;8.50;51.60
20091;DHT22;10205;49.678;6.560;2023-02-07T13:59:41;8.50;53.30
20091;DHT22;10205;49.678;6.560;2023-02-07T14:02:30;8.60;52.50
20091;DHT22;10205;49.678;6.560;2023-02-07T14:05:09;8.60;50.70
20091;DHT22;10205;49.678;6.560;2023-02-07T14:07:49;8.70;51.60
20091;DHT22;10205;49.678;6.560;2023-02-07T14:10:41;8.70;50.70
20091;DHT22;10205;49.678;6.560;2023-02-07T14:13:21;8.70;51.00
20091;DHT22;10205;49.678;6.560;2023-02-07T14:15:59;8.70;50.00
20091;DHT22;10205;49.678;6.560;2023-02-07T14:18:46;8.70;49.80
20091;DHT22;10205;49.678;6.560;2023-02-07T14:21:38;8.70;49.20
20091;DHT22;10205;49.678;6.560;2023-02-07T14:24:29;8.70;48.40
20091;DHT22;10205;49.678;6.560;2023-02-07T14:27:00;8.70;47.50
20091;DHT22;10205;49.678;6.560;2023-02-07T14:29:50;8.80;50.50
20091;DHT22;10205;49.678;6.560;2023-02-07T14:33:07;8.80;49.90
20091;DHT22;10205;49.678;6.560;2023-02-07T14:35:38;8.80;50.50
20091;DHT22;10205;49.678;6.560;2023-02-07T14:38:28;8.90;49.60
20091;DHT22;10205;49.678;6.560;2023-02-07T14:41:02;8.90;47.50
20091;DHT22;10205;49.678;6.560;2023-02-07T14:43:39;8.90;49.60
20091;DHT22;10205;49.678;6.560;2023-02-07T14:46:12;8.90;48.50
20091;DHT22;10205;49.678;6.560;2023-02-07T14:48:50;8.90;49.10
20091;DHT22;10205;49.678;6.560;2023-02-07T14:51:23;9.00;48.20
20091;DHT22;10205;49.678;6.560;2023-02-07T14:54:06;9.00;48.20
20091;DHT22;10205;49.678;6.560;2023-02-07T14:56:48;9.00;48.10
20091;DHT22;10205;49.678;6.560;2023-02-07T14:59:26;9.00;47.70
20091;DHT22;10205;49.678;6.560;2023-02-07T15:01:55;9.00;47.30
20091;DHT22;10205;49.678;6.560;2023-02-07T15:04:22;9.10;47.70
20091;DHT22;10205;49.678;6.560;2023-02-07T15:06:50;9.10;47.00
20091;DHT22;10205;49.678;6.560;2023-02-07T15:09:23;9.10;48.40
20091;DHT22;10205;49.678;6.560;2023-02-07T15:11:53;9.10;47.20
20091;DHT22;10205;49.678;6.560;2023-02-07T15:14:33;9.10;47.40
20091;DHT22;10205;49.678;6.560;2023-02-07T15:17:03;9.10;47.30
20091;DHT22;10205;49.678;6.560;2023-02-07T15:19:34;9.10;46.20
20091;DHT22;10205;49.678;6.560;2023-02-07T15:22:04;9.10;45.90
20091;DHT22;10205;49.678;6.560;2023-02-07T15:24:36;9.10;47.00
20091;DHT22;10205;49.678;6.560;2023-02-07T15:27:12;9.10;46.40
20091;DHT22;10205;49.678;6.560;2023-02-07T15:29:53;9.10;47.90
20091;DHT22;10205;49.678;6.560;2023-02-07T15:32:22;9.20;45.60
20091;DHT22;10205;49.678;6.560;2023-02-07T15:34:52;9.20;48.50
20091;DHT22;10205;49.678;6.560;2023-02-07T15:37:21;9.20;49.20
20091;DHT22;10205;49.678;6.560;2023-02-07T15:39:54;9.30;49.30
20091;DHT22;10205;49.678;6.560;2023-02-07T15:42:22;9.30;50.00
20091;DHT22;10205;49.678;6.560;2023-02-07T15:44:51;9.40;49.70
20091;DHT22;10205;49.678;6.560;2023-02-07T15:47:34;9.40;49.50
20091;DHT22;10205;49.678;6.560;2023-02-07T15:50:04;9.50;46.60
20091;DHT22;10205;49.678;6.560;2023-02-07T15:52:34;9.60;48.20
20091;DHT22;10205;49.678;6.560;2023-02-07T15:55:15;9.60;48.50
20091;DHT22;10205;49.678;6.560;2023-02-07T15:57:46;9.60;49.00
20091;DHT22;10205;49.678;6.560;2023-02-07T16:00:17;9.70;50.80
20091;DHT22;10205;49.678;6.560;2023-02-07T16:02:54;9.70;47.50
20091;DHT22;10205;49.678;6.560;2023-02-07T16:05:26;9.70;47.30
20091;DHT22;10205;49.678;6.560;2023-02-07T16:07:57;9.80;46.10
20091;DHT22;10205;49.678;6.560;2023-02-07T16:10:37;9.80;45.90
20091;DHT22;10205;49.678;6.560;2023-02-07T16:13:15;9.80;47.10
20091;DHT22;10205;49.678;6.560;2023-02-07T16:15:53;9.80;47.40
20091;DHT22;10205;49.678;6.560;2023-02-07T16:18:34;9.80;46.00
20091;DHT22;10205;49.678;6.560;2023-02-07T16:21:04;9.80;47.50
20091;DHT22;10205;49.678;6.560;2023-02-07T16:23:34;9.70;49.50
20091;DHT22;10205;49.678;6.560;2023-02-07T16:26:02;9.80;48.70
20091;DHT22;10205;49.678;6.560;2023-02-07T16:28:30;9.80;47.60
20091;DHT22;10205;49.678;6.560;2023-02-07T16:30:58;9.80;46.00